EW1072 Drum Point MD US current weather conditions

sailwx.info

Wind from 252

Air temperature 30.0° C
Dewpoint 25.5° C

Last reported at 2020-Jul-11 20:01 UTC.
Time now 2020-Jul-11 20:57 UTC

Location: N 38°19' W 076°25'.
View on Google Maps.

See reports from other nearby stations

  
Tides and Currents Weather Stations Pressure Air Temp Water Temp Dewpoint Dewpoint Depression Visibility Wind Speed Wind Dir Waves Ship Positions
date/time (UTC)wind fromknots sea level pressurealtimeterstation pressurevisibilityair tempwater tempwave heightnotes
2020-Jul-11 20:01 252 30.0
2020-Jul-11 19:46 051 30.0
2020-Jul-11 19:30 063 30.6
2020-Jul-11 19:15 255 31.7
2020-Jul-11 19:02 245 31.7
2020-Jul-11 18:45 224 0 gusting 2 31.7
2020-Jul-11 18:32 215 1 gusting 3 31.7
2020-Jul-11 18:16 205 0 gusting 2 31.7
2020-Jul-11 18:00 224 0 gusting 2 31.1
2020-Jul-11 17:45 221 1 gusting 2 30.6
2020-Jul-11 17:31 208 30.6
2020-Jul-11 17:15 248 0 gusting 1 30.0
2020-Jul-11 17:00 231 30.0
2020-Jul-11 16:45 250 28.9
2020-Jul-11 16:30 240 28.3
2020-Jul-11 16:15 248 28.3
2020-Jul-11 16:02 243 27.8
2020-Jul-11 15:46 240 27.8
2020-Jul-11 15:31 226 27.2
2020-Jul-11 15:16 240 0 gusting 2 27.2
2020-Jul-11 15:00 217 1 gusting 2 26.7
2020-Jul-11 14:46 224 1 gusting 3 26.1
2020-Jul-11 14:30 226 1 gusting 3 26.1
2020-Jul-11 14:15 217 0 gusting 3 25.6
2020-Jul-11 14:00 215 1 gusting 2 25.6
2020-Jul-11 13:46 204 1 gusting 3 25.6
2020-Jul-11 13:31 217 1 gusting 4 25.0
2020-Jul-11 13:15 225 1 gusting 5 25.0
2020-Jul-11 13:00 214 3 gusting 5 25.0
2020-Jul-11 12:45 229 2 gusting 5 25.0
2020-Jul-11 12:30 226 3 gusting 6 25.0
2020-Jul-11 12:15 221 3 gusting 5 25.0
2020-Jul-11 12:00 222 2 gusting 4 25.0
2020-Jul-11 11:46 222 3 gusting 6 25.0
2020-Jul-11 11:30 219 3 gusting 5 25.0
2020-Jul-11 11:15 221 3 gusting 6 25.0
2020-Jul-11 11:00 218 3 gusting 6 25.0
2020-Jul-11 10:45 236 2 gusting 4 25.0
2020-Jul-11 10:31 229 3 gusting 5 25.0
2020-Jul-11 10:16 221 2 gusting 5 24.4
2020-Jul-11 10:01 218 2 gusting 4 24.4
2020-Jul-11 09:46 221 3 gusting 5 24.4
2020-Jul-11 09:31 219 2 gusting 4 24.4
2020-Jul-11 09:16 217 2 gusting 3 25.0
2020-Jul-11 09:01 222 1 gusting 2 25.0
2020-Jul-11 08:46 214 2 gusting 4 25.0
2020-Jul-11 08:33 217 2 gusting 3 25.0
2020-Jul-11 08:15 215 1 gusting 5 25.0
2020-Jul-11 08:00 221 3 gusting 5 25.6
2020-Jul-11 07:45 221 2 gusting 4 25.6
2020-Jul-11 07:30 221 3 gusting 4 26.1
2020-Jul-11 07:15 221 1 gusting 4 26.1
2020-Jul-11 07:00 217 2 gusting 4 26.1
2020-Jul-11 06:45 226 2 gusting 5 26.7
2020-Jul-11 06:16 224 4 gusting 6 26.7
2020-Jul-11 06:03 217 3 gusting 6 27.2
2020-Jul-11 05:46 225 3 gusting 6 27.2
2020-Jul-11 05:31 221 5 gusting 9 27.8
2020-Jul-11 05:15 214 4 gusting 6 27.8
2020-Jul-11 05:00 214 6 gusting 9 27.8
2020-Jul-11 04:45 233 7 gusting 10 27.8
2020-Jul-11 04:16 218 2 gusting 4 27.2
2020-Jul-11 04:01 215 1 gusting 2 27.2
2020-Jul-11 03:46 217 0 gusting 2 26.7
2020-Jul-11 03:31 224 26.1
2020-Jul-11 03:17 244 26.1
2020-Jul-11 03:02 245 26.1
2020-Jul-11 02:47 245 26.1
2020-Jul-11 02:31 245 26.1
2020-Jul-11 02:17 244 26.1
2020-Jul-11 02:00 245 26.7
2020-Jul-11 01:45 245 26.7
2020-Jul-11 01:31 244 26.7
2020-Jul-11 01:16 242 26.7
2020-Jul-11 01:01 242 26.7
2020-Jul-11 00:46 232 27.2
2020-Jul-11 00:30 203 27.2
2020-Jul-11 00:15 138 27.2
2020-Jul-11 00:00 138 27.8
2020-Jul-10 23:45 139 27.8
2020-Jul-10 23:30 138 28.3
2020-Jul-10 23:15 138 28.3
2020-Jul-10 23:00 139 28.9
2020-Jul-10 22:45 208 30.0
2020-Jul-10 22:30 239 30.0
2020-Jul-10 22:15 252 30.0
2020-Jul-10 22:01 236 30.6
2020-Jul-10 21:46 236 30.6
2020-Jul-10 21:32 219 0 gusting 3 30.6
2020-Jul-10 21:16 228 0 gusting 3 31.1
2020-Jul-10 21:01 228 31.1
2020-Jul-10 20:46 219 0 gusting 3 31.1
2020-Jul-10 20:31 243 0 gusting 3 31.1
2020-Jul-10 20:16 037 31.1
2020-Jul-10 20:00 281 0 gusting 3 31.1
2020-Jul-10 19:45 266 30.6
2020-Jul-10 19:31 242 30.6
2020-Jul-10 19:16 235 30.0
2020-Jul-10 19:00 043 30.6
2020-Jul-10 18:45 019 28.9
2020-Jul-10 18:30 088 28.9
2020-Jul-10 18:15 043 0 gusting 5 30.0
2020-Jul-10 18:00 321 30.0
2020-Jul-10 17:45 243 1 gusting 8 29.4
2020-Jul-10 17:30 317 0 gusting 4 28.9
2020-Jul-10 17:15 050 28.3
2020-Jul-10 17:00 056 29.4
2020-Jul-10 16:32 238 2 gusting 7 28.9
2020-Jul-10 16:16 256 28.3
2020-Jul-10 16:01 248 0 gusting 5 27.2
2020-Jul-10 15:45 344 0 gusting 5 26.7
2020-Jul-10 15:31 051 1 gusting 4 26.1
2020-Jul-10 15:16 205 1 gusting 7 26.1
2020-Jul-10 15:01 005 0 gusting 6 26.1
2020-Jul-10 14:46 239 0 gusting 6 26.7
2020-Jul-10 14:30 238 0 gusting 4 26.7
2020-Jul-10 14:16 244 0 gusting 6 26.7
2020-Jul-10 14:00 250 0 gusting 5 27.2
2020-Jul-10 13:45 070 0 gusting 5 26.7
2020-Jul-10 13:30 342 1 gusting 6 26.7
2020-Jul-10 13:17 042 0 gusting 6 26.7
2020-Jul-10 13:02 101 0 gusting 6 26.1
2020-Jul-10 12:46 276 1 gusting 4 26.1
2020-Jul-10 12:31 240 1 gusting 5 25.6
2020-Jul-10 12:16 034 1 gusting 11 25.6
2020-Jul-10 12:01 044 25.6
2020-Jul-10 11:47 040 0 gusting 5 25.6
2020-Jul-10 11:30 023 0 gusting 5 25.6
2020-Jul-10 11:16 167 1 gusting 8 25.6
2020-Jul-10 11:01 036 0 gusting 6 25.0
2020-Jul-10 10:46 015 25.0
2020-Jul-10 10:31 333 25.0
2020-Jul-10 10:15 264 25.0
2020-Jul-10 10:01 005 0 gusting 5 25.0
2020-Jul-10 09:46 027 25.0
2020-Jul-10 09:31 322 25.0
2020-Jul-10 09:15 019 24.4
2020-Jul-10 09:00 349 0 gusting 3 24.4
2020-Jul-10 08:45 017 0 gusting 4 24.4
2020-Jul-10 08:30 293 24.4
2020-Jul-10 08:15 294 24.4
2020-Jul-10 08:00 028 24.4
2020-Jul-10 07:45 008 24.4
2020-Jul-10 07:30 300 24.4
2020-Jul-10 07:15 354 24.4
2020-Jul-10 07:02 067 25.0
2020-Jul-10 06:46 333 25.0
2020-Jul-10 06:31 060 25.0
2020-Jul-10 06:16 358 25.0
2020-Jul-10 06:01 023 25.0
2020-Jul-10 05:46 335 25.0
2020-Jul-10 05:31 023 25.6
2020-Jul-10 05:16 027 25.6
2020-Jul-10 05:01 027 25.6
2020-Jul-10 04:45 360 25.6
2020-Jul-10 04:31 061 25.6
2020-Jul-10 04:15 094 25.6
2020-Jul-10 04:00 253 26.1
2020-Jul-10 03:45 078 26.1
2020-Jul-10 03:30 050 26.1
2020-Jul-10 03:17 342 26.1
2020-Jul-10 03:00 045 26.7
2020-Jul-10 02:45 347 26.7
2020-Jul-10 02:30 266 26.7
2020-Jul-10 02:15 255 26.7
2020-Jul-10 02:00 239 26.7
2020-Jul-10 01:45 081 27.2
2020-Jul-10 01:30 089 27.2
2020-Jul-10 01:15 091 27.2
2020-Jul-10 01:00 078 27.2
2020-Jul-10 00:47 257 27.8
2020-Jul-10 00:31 083 27.8
2020-Jul-10 00:16 167 28.3
2020-Jul-10 00:02 246 28.3
2020-Jul-09 23:47 259 28.3
2020-Jul-09 23:31 068 28.9
2020-Jul-09 23:16 070 28.9
2020-Jul-09 23:01 065 28.9
2020-Jul-09 22:47 056 28.9
2020-Jul-09 22:31 082 29.4
2020-Jul-09 22:16 075 30.0
2020-Jul-09 22:00 037 30.6
2020-Jul-09 21:45 086 30.0
2020-Jul-09 21:30 248 30.6
2020-Jul-09 21:15 352 31.1
2020-Jul-09 21:00 248 31.1
2020-Jul-09 20:45 248 31.1
2020-Jul-09 20:30 243 31.1
2020-Jul-09 20:17 242 31.1
2020-Jul-09 20:01 211 31.1